sensor_id;sensor_type;location;lat;lon;timestamp;pressure;altitude;pressure_sealevel;temperature;humidity
57192;BME280;43052;52.588;13.396;2022-08-26T00:00:06;101122.84;;;21.10;74.55
57192;BME280;43052;52.588;13.396;2022-08-26T00:02:32;101128.09;;;21.11;74.52
57192;BME280;43052;52.588;13.396;2022-08-26T00:04:58;101139.75;;;21.09;74.69
57192;BME280;43052;52.588;13.396;2022-08-26T00:07:23;101136.34;;;21.05;74.66
57192;BME280;43052;52.588;13.396;2022-08-26T00:09:48;101137.31;;;21.03;74.75
57192;BME280;43052;52.588;13.396;2022-08-26T00:12:13;101135.88;;;20.95;74.85
57192;BME280;43052;52.588;13.396;2022-08-26T00:14:39;101134.09;;;20.96;74.55
57192;BME280;43052;52.588;13.396;2022-08-26T00:17:04;101136.94;;;20.91;75.10
57192;BME280;43052;52.588;13.396;2022-08-26T00:19:30;101132.69;;;20.87;75.15
57192;BME280;43052;52.588;13.396;2022-08-26T00:21:55;101133.75;;;20.83;75.50
57192;BME280;43052;52.588;13.396;2022-08-26T00:24:20;101137.34;;;20.82;75.29
57192;BME280;43052;52.588;13.396;2022-08-26T00:26:46;101137.47;;;20.79;75.38
57192;BME280;43052;52.588;13.396;2022-08-26T00:29:12;101137.66;;;20.74;75.37
57192;BME280;43052;52.588;13.396;2022-08-26T00:31:38;101130.91;;;20.65;75.62
57192;BME280;43052;52.588;13.396;2022-08-26T00:34:03;101128.50;;;20.59;75.90
57192;BME280;43052;52.588;13.396;2022-08-26T00:36:28;101119.94;;;20.53;76.12
57192;BME280;43052;52.588;13.396;2022-08-26T00:38:53;101132.16;;;20.57;76.23
57192;BME280;43052;52.588;13.396;2022-08-26T00:41:19;101130.41;;;20.56;76.29
57192;BME280;43052;52.588;13.396;2022-08-26T00:43:44;101117.28;;;20.53;76.54
57192;BME280;43052;52.588;13.396;2022-08-26T00:46:16;101119.13;;;20.50;77.02
57192;BME280;43052;52.588;13.396;2022-08-26T00:48:46;101117.47;;;20.48;77.39
57192;BME280;43052;52.588;13.396;2022-08-26T00:51:24;101118.44;;;20.45;77.78
57192;BME280;43052;52.588;13.396;2022-08-26T00:53:53;101116.66;;;20.46;77.91
57192;BME280;43052;52.588;13.396;2022-08-26T00:56:25;101114.94;;;20.45;78.28
57192;BME280;43052;52.588;13.396;2022-08-26T00:58:55;101112.41;;;20.42;79.14
57192;BME280;43052;52.588;13.396;2022-08-26T01:01:22;101119.44;;;20.43;78.80
57192;BME280;43052;52.588;13.396;2022-08-26T01:03:50;101115.78;;;20.45;79.10
57192;BME280;43052;52.588;13.396;2022-08-26T01:06:16;101113.91;;;20.49;78.68
57192;BME280;43052;52.588;13.396;2022-08-26T01:08:41;101120.88;;;20.51;78.57
57192;BME280;43052;52.588;13.396;2022-08-26T01:11:07;101115.47;;;20.53;78.65
57192;BME280;43052;52.588;13.396;2022-08-26T01:13:35;101106.59;;;20.54;78.46
57192;BME280;43052;52.588;13.396;2022-08-26T01:16:03;101113.63;;;20.55;78.42
57192;BME280;43052;52.588;13.396;2022-08-26T01:18:29;101112.75;;;20.55;78.17
57192;BME280;43052;52.588;13.396;2022-08-26T01:21:11;101110.25;;;20.51;78.54
57192;BME280;43052;52.588;13.396;2022-08-26T01:23:42;101110.28;;;20.50;78.64
57192;BME280;43052;52.588;13.396;2022-08-26T01:26:12;101113.91;;;20.49;78.82
57192;BME280;43052;52.588;13.396;2022-08-26T01:28:40;101104.25;;;20.46;78.60
57192;BME280;43052;52.588;13.396;2022-08-26T01:31:10;101116.56;;;20.49;78.93
57192;BME280;43052;52.588;13.396;2022-08-26T01:34:04;101116.38;;;20.54;78.93
57192;BME280;43052;52.588;13.396;2022-08-26T01:36:30;101113.44;;;20.60;78.95
57192;BME280;43052;52.588;13.396;2022-08-26T01:38:56;101117.44;;;20.70;78.91
57192;BME280;43052;52.588;13.396;2022-08-26T01:41:21;101105.88;;;20.71;78.67
57192;BME280;43052;52.588;13.396;2022-08-26T01:43:50;101112.00;;;20.73;78.62
57192;BME280;43052;52.588;13.396;2022-08-26T01:46:17;101109.31;;;20.75;78.57
57192;BME280;43052;52.588;13.396;2022-08-26T01:48:44;101098.84;;;20.70;78.45
57192;BME280;43052;52.588;13.396;2022-08-26T01:51:11;101101.41;;;20.72;78.40
57192;BME280;43052;52.588;13.396;2022-08-26T01:53:37;101102.28;;;20.72;78.29
57192;BME280;43052;52.588;13.396;2022-08-26T01:56:04;101104.19;;;20.69;78.18
57192;BME280;43052;52.588;13.396;2022-08-26T01:58:36;101098.16;;;20.65;78.42
57192;BME280;43052;52.588;13.396;2022-08-26T02:01:03;101100.88;;;20.63;78.18
57192;BME280;43052;52.588;13.396;2022-08-26T02:03:29;101099.28;;;20.59;78.26
57192;BME280;43052;52.588;13.396;2022-08-26T02:05:59;101095.84;;;20.57;78.10
57192;BME280;43052;52.588;13.396;2022-08-26T02:08:29;101095.88;;;20.56;78.34
57192;BME280;43052;52.588;13.396;2022-08-26T02:10:56;101101.28;;;20.54;78.48
57192;BME280;43052;52.588;13.396;2022-08-26T02:13:24;101093.56;;;20.48;78.62
57192;BME280;43052;52.588;13.396;2022-08-26T02:15:51;101091.16;;;20.42;78.95
57192;BME280;43052;52.588;13.396;2022-08-26T02:18:17;101093.03;;;20.40;79.24
57192;BME280;43052;52.588;13.396;2022-08-26T02:20:42;101093.16;;;20.37;79.28
57192;BME280;43052;52.588;13.396;2022-08-26T02:23:07;101082.78;;;20.30;79.34
57192;BME280;43052;52.588;13.396;2022-08-26T02:25:54;101097.53;;;20.38;79.35
57192;BME280;43052;52.588;13.396;2022-08-26T02:28:20;101093.03;;;20.40;78.95
57192;BME280;43052;52.588;13.396;2022-08-26T02:30:46;101089.38;;;20.42;78.84
57192;BME280;43052;52.588;13.396;2022-08-26T02:33:11;101082.41;;;20.40;78.68
57192;BME280;43052;52.588;13.396;2022-08-26T02:35:38;101083.34;;;20.39;78.53
57192;BME280;43052;52.588;13.396;2022-08-26T02:38:07;101083.34;;;20.39;78.62
57192;BME280;43052;52.588;13.396;2022-08-26T02:40:34;101083.53;;;20.34;79.05
57192;BME280;43052;52.588;13.396;2022-08-26T02:43:00;101080.97;;;20.31;79.22
57192;BME280;43052;52.588;13.396;2022-08-26T02:45:26;101082.91;;;20.27;79.47
57192;BME280;43052;52.588;13.396;2022-08-26T02:47:53;101082.16;;;20.24;79.65
57192;BME280;43052;52.588;13.396;2022-08-26T02:50:20;101082.28;;;20.20;79.70
57192;BME280;43052;52.588;13.396;2022-08-26T02:52:45;101083.28;;;20.18;79.52
57192;BME280;43052;52.588;13.396;2022-08-26T02:55:12;101075.44;;;20.15;79.68
57192;BME280;43052;52.588;13.396;2022-08-26T02:57:37;101073.84;;;20.11;80.09
57192;BME280;43052;52.588;13.396;2022-08-26T03:00:05;101077.50;;;20.08;80.09
57192;BME280;43052;52.588;13.396;2022-08-26T03:02:32;101073.09;;;20.07;80.34
57192;BME280;43052;52.588;13.396;2022-08-26T03:04:57;101074.09;;;20.04;80.65
57192;BME280;43052;52.588;13.396;2022-08-26T03:07:23;101067.06;;;20.03;80.71
57192;BME280;43052;52.588;13.396;2022-08-26T03:09:48;101064.63;;;19.97;80.84
57192;BME280;43052;52.588;13.396;2022-08-26T03:12:14;101071.56;;;20.01;80.97
57192;BME280;43052;52.588;13.396;2022-08-26T03:14:39;101068.97;;;20.00;81.18
57192;BME280;43052;52.588;13.396;2022-08-26T03:17:04;101073.38;;;20.01;81.25
57192;BME280;43052;52.588;13.396;2022-08-26T03:19:30;101071.47;;;20.03;81.13
57192;BME280;43052;52.588;13.396;2022-08-26T03:21:56;101073.91;;;20.09;81.47
57192;BME280;43052;52.588;13.396;2022-08-26T03:24:21;101069.19;;;20.16;81.02
57192;BME280;43052;52.588;13.396;2022-08-26T03:26:47;101063.78;;;20.19;80.73
57192;BME280;43052;52.588;13.396;2022-08-26T03:29:13;101069.09;;;20.19;80.81
57192;BME280;43052;52.588;13.396;2022-08-26T03:31:56;101059.66;;;20.12;80.98
57192;BME280;43052;52.588;13.396;2022-08-26T03:34:22;101063.34;;;20.08;80.85
57192;BME280;43052;52.588;13.396;2022-08-26T03:36:48;101069.63;;;20.05;80.97
57192;BME280;43052;52.588;13.396;2022-08-26T03:39:13;101062.53;;;20.06;80.99
57192;BME280;43052;52.588;13.396;2022-08-26T03:41:40;101062.59;;;20.04;81.07
57192;BME280;43052;52.588;13.396;2022-08-26T03:44:06;101062.66;;;20.02;80.98
57192;BME280;43052;52.588;13.396;2022-08-26T03:46:33;101056.38;;;20.05;81.02
57192;BME280;43052;52.588;13.396;2022-08-26T03:48:59;101062.41;;;20.09;80.92
57192;BME280;43052;52.588;13.396;2022-08-26T03:51:25;101060.50;;;20.12;80.73
57192;BME280;43052;52.588;13.396;2022-08-26T03:53:51;101057.66;;;20.17;80.38
57192;BME280;43052;52.588;13.396;2022-08-26T03:56:16;101051.31;;;20.21;80.24
57192;BME280;43052;52.588;13.396;2022-08-26T03:58:41;101052.22;;;20.20;80.39
57192;BME280;43052;52.588;13.396;2022-08-26T04:01:09;101055.06;;;20.15;80.46
57192;BME280;43052;52.588;13.396;2022-08-26T04:03:35;101048.34;;;20.07;80.61
57192;BME280;43052;52.588;13.396;2022-08-26T04:06:18;101049.22;;;20.07;80.62
57192;BME280;43052;52.588;13.396;2022-08-26T04:08:43;101051.91;;;20.06;80.61
57192;BME280;43052;52.588;13.396;2022-08-26T04:11:15;101039.81;;;19.98;80.91
57192;BME280;43052;52.588;13.396;2022-08-26T04:13:40;101050.25;;;20.03;81.00
57192;BME280;43052;52.588;13.396;2022-08-26T04:16:05;101029.28;;;19.97;80.97
57192;BME280;43052;52.588;13.396;2022-08-26T04:18:31;101040.53;;;20.03;80.77
57192;BME280;43052;52.588;13.396;2022-08-26T04:20:56;101045.69;;;20.07;80.84
57192;BME280;43052;52.588;13.396;2022-08-26T04:23:21;101043.91;;;20.07;80.75
57192;BME280;43052;52.588;13.396;2022-08-26T04:25:47;101039.59;;;20.04;80.90
57192;BME280;43052;52.588;13.396;2022-08-26T04:28:12;101045.44;;;20.13;80.93
57192;BME280;43052;52.588;13.396;2022-08-26T04:30:39;101036.50;;;20.15;80.66
57192;BME280;43052;52.588;13.396;2022-08-26T04:33:04;101045.00;;;20.24;80.79
57192;BME280;43052;52.588;13.396;2022-08-26T04:35:31;101039.56;;;20.27;80.56
57192;BME280;43052;52.588;13.396;2022-08-26T04:37:58;101048.47;;;20.26;81.28
57192;BME280;43052;52.588;13.396;2022-08-26T04:40:23;101046.56;;;20.28;81.04
57192;BME280;43052;52.588;13.396;2022-08-26T04:42:50;101040.31;;;20.30;81.14
57192;BME280;43052;52.588;13.396;2022-08-26T04:45:15;101044.63;;;20.33;81.05
57192;BME280;43052;52.588;13.396;2022-08-26T04:47:41;101043.50;;;20.39;80.98
57192;BME280;43052;52.588;13.396;2022-08-26T04:50:06;101033.78;;;20.38;80.92
57192;BME280;43052;52.588;13.396;2022-08-26T04:52:32;101043.16;;;20.46;80.63
57192;BME280;43052;52.588;13.396;2022-08-26T04:54:58;101050.00;;;20.52;80.40
57192;BME280;43052;52.588;13.396;2022-08-26T04:57:23;101027.03;;;20.51;80.13
57192;BME280;43052;52.588;13.396;2022-08-26T04:59:48;101037.13;;;20.63;79.91
57192;BME280;43052;52.588;13.396;2022-08-26T05:02:13;101043.91;;;20.71;80.16
57192;BME280;43052;52.588;13.396;2022-08-26T05:04:39;101051.22;;;20.86;80.02
57192;BME280;43052;52.588;13.396;2022-08-26T05:07:07;101051.28;;;21.05;79.56
57192;BME280;43052;52.588;13.396;2022-08-26T05:09:33;101052.03;;;21.28;79.13
57192;BME280;43052;52.588;13.396;2022-08-26T05:11:58;101056.88;;;21.58;78.57
57192;BME280;43052;52.588;13.396;2022-08-26T05:14:24;101054.63;;;21.87;77.74
57192;BME280;43052;52.588;13.396;2022-08-26T05:16:49;101055.09;;;22.14;77.25
57192;BME280;43052;52.588;13.396;2022-08-26T05:19:15;101045.06;;;22.37;76.13
57192;BME280;43052;52.588;13.396;2022-08-26T05:21:41;101055.38;;;22.62;75.39
57192;BME280;43052;52.588;13.396;2022-08-26T05:24:09;101059.56;;;22.84;74.52
57192;BME280;43052;52.588;13.396;2022-08-26T05:26:35;101060.50;;;23.00;74.21
57192;BME280;43052;52.588;13.396;2022-08-26T05:29:00;101051.03;;;23.11;73.58
57192;BME280;43052;52.588;13.396;2022-08-26T05:31:28;101058.72;;;23.35;72.95
57192;BME280;43052;52.588;13.396;2022-08-26T05:33:55;101061.81;;;23.59;71.71
57192;BME280;43052;52.588;13.396;2022-08-26T05:36:23;101068.38;;;23.85;71.20
57192;BME280;43052;52.588;13.396;2022-08-26T05:38:49;101056.69;;;24.34;69.23
57192;BME280;43052;52.588;13.396;2022-08-26T05:41:24;101062.47;;;25.02;67.33
57192;BME280;43052;52.588;13.396;2022-08-26T05:43:54;101054.53;;;25.58;64.67
57192;BME280;43052;52.588;13.396;2022-08-26T05:46:19;101056.00;;;26.04;63.61
57192;BME280;43052;52.588;13.396;2022-08-26T05:48:45;101041.97;;;26.54;62.32
57192;BME280;43052;52.588;13.396;2022-08-26T05:51:11;101050.38;;;27.27;60.95
57192;BME280;43052;52.588;13.396;2022-08-26T05:53:38;101043.81;;;28.05;58.50
57192;BME280;43052;52.588;13.396;2022-08-26T05:56:06;101045.41;;;28.79;56.63
57192;BME280;43052;52.588;13.396;2022-08-26T05:58:34;101044.81;;;29.32;54.26
57192;BME280;43052;52.588;13.396;2022-08-26T06:01:00;101055.16;;;29.71;52.42
57192;BME280;43052;52.588;13.396;2022-08-26T06:03:27;101048.69;;;30.06;51.63
57192;BME280;43052;52.588;13.396;2022-08-26T06:05:53;101048.25;;;30.55;50.40
57192;BME280;43052;52.588;13.396;2022-08-26T06:08:18;101041.34;;;31.14;49.12
57192;BME280;43052;52.588;13.396;2022-08-26T06:10:51;101040.16;;;31.57;47.49
57192;BME280;43052;52.588;13.396;2022-08-26T06:13:17;101046.47;;;31.78;47.19
57192;BME280;43052;52.588;13.396;2022-08-26T06:15:45;101033.53;;;32.21;45.96
57192;BME280;43052;52.588;13.396;2022-08-26T06:18:12;101044.59;;;32.66;44.38
57192;BME280;43052;52.588;13.396;2022-08-26T06:20:40;101043.53;;;32.97;42.21
57192;BME280;43052;52.588;13.396;2022-08-26T06:23:12;101035.56;;;32.95;42.54
57192;BME280;43052;52.588;13.396;2022-08-26T06:25:56;101047.94;;;33.36;42.09
57192;BME280;43052;52.588;13.396;2022-08-26T06:28:22;101041.03;;;33.69;41.45
57192;BME280;43052;52.588;13.396;2022-08-26T06:30:49;101040.25;;;34.31;40.22
57192;BME280;43052;52.588;13.396;2022-08-26T06:33:15;101038.25;;;34.86;38.94
57192;BME280;43052;52.588;13.396;2022-08-26T06:35:41;101035.81;;;35.09;38.25
57192;BME280;43052;52.588;13.396;2022-08-26T06:38:07;101038.56;;;35.69;37.38
57192;BME280;43052;52.588;13.396;2022-08-26T06:40:39;101039.81;;;36.07;36.07
57192;BME280;43052;52.588;13.396;2022-08-26T06:43:05;101039.47;;;36.27;35.50
57192;BME280;43052;52.588;13.396;2022-08-26T06:45:30;101037.59;;;36.61;35.04
57192;BME280;43052;52.588;13.396;2022-08-26T06:47:55;101045.28;;;37.13;34.79
57192;BME280;43052;52.588;13.396;2022-08-26T06:50:20;101041.94;;;37.66;33.76
57192;BME280;43052;52.588;13.396;2022-08-26T06:52:46;101041.16;;;38.27;32.53
57192;BME280;43052;52.588;13.396;2022-08-26T06:55:11;101039.75;;;38.84;31.72
57192;BME280;43052;52.588;13.396;2022-08-26T06:57:36;101038.63;;;39.45;31.04
57192;BME280;43052;52.588;13.396;2022-08-26T07:00:06;101033.34;;;40.02;29.53
57192;BME280;43052;52.588;13.396;2022-08-26T07:02:34;101035.22;;;40.23;29.62
57192;BME280;43052;52.588;13.396;2022-08-26T07:04:59;101031.50;;;40.66;28.70
57192;BME280;43052;52.588;13.396;2022-08-26T07:07:24;101024.69;;;40.91;28.83
57192;BME280;43052;52.588;13.396;2022-08-26T07:09:49;101028.81;;;41.22;27.30
57192;BME280;43052;52.588;13.396;2022-08-26T07:12:15;101028.59;;;41.10;27.62
57192;BME280;43052;52.588;13.396;2022-08-26T07:14:40;101027.47;;;41.53;27.70
57192;BME280;43052;52.588;13.396;2022-08-26T07:17:05;101025.41;;;41.81;27.11
57192;BME280;43052;52.588;13.396;2022-08-26T07:19:31;101021.00;;;42.07;26.63
57192;BME280;43052;52.588;13.396;2022-08-26T07:21:57;101024.59;;;42.41;26.42
57192;BME280;43052;52.588;13.396;2022-08-26T07:24:22;101020.00;;;43.01;25.39
57192;BME280;43052;52.588;13.396;2022-08-26T07:26:47;101018.47;;;43.57;24.64
57192;BME280;43052;52.588;13.396;2022-08-26T07:29:13;101024.69;;;44.03;23.31
57192;BME280;43052;52.588;13.396;2022-08-26T07:31:40;101014.59;;;43.90;23.14
57192;BME280;43052;52.588;13.396;2022-08-26T07:34:06;101023.19;;;43.75;24.04
57192;BME280;43052;52.588;13.396;2022-08-26T07:36:33;101011.91;;;44.09;23.67
57192;BME280;43052;52.588;13.396;2022-08-26T07:38:58;101012.53;;;44.73;23.27
57192;BME280;43052;52.588;13.396;2022-08-26T07:41:24;101017.66;;;45.37;22.53
57192;BME280;43052;52.588;13.396;2022-08-26T07:43:51;101017.78;;;45.85;21.09
57192;BME280;43052;52.588;13.396;2022-08-26T07:46:19;101011.22;;;46.22;20.85
57192;BME280;43052;52.588;13.396;2022-08-26T07:48:46;101011.88;;;46.65;20.37
57192;BME280;43052;52.588;13.396;2022-08-26T07:51:13;101011.19;;;46.81;20.51
57192;BME280;43052;52.588;13.396;2022-08-26T07:53:38;101012.44;;;47.48;19.96
57192;BME280;43052;52.588;13.396;2022-08-26T07:56:04;101016.00;;;48.12;18.91
57192;BME280;43052;52.588;13.396;2022-08-26T07:58:29;101009.19;;;48.20;18.75
57192;BME280;43052;52.588;13.396;2022-08-26T08:01:01;100996.84;;;48.50;18.48
57192;BME280;43052;52.588;13.396;2022-08-26T08:03:35;101010.81;;;48.99;18.06
57192;BME280;43052;52.588;13.396;2022-08-26T08:06:01;101006.84;;;49.45;17.16
57192;BME280;43052;52.588;13.396;2022-08-26T08:08:26;101011.34;;;49.56;17.27
57192;BME280;43052;52.588;13.396;2022-08-26T08:10:51;101004.72;;;49.30;17.75
57192;BME280;43052;52.588;13.396;2022-08-26T08:13:17;101002.50;;;49.59;17.12
57192;BME280;43052;52.588;13.396;2022-08-26T08:15:42;101003.69;;;49.68;17.15
57192;BME280;43052;52.588;13.396;2022-08-26T08:18:08;101006.16;;;49.97;16.32
57192;BME280;43052;52.588;13.396;2022-08-26T08:20:34;100996.50;;;49.73;16.93
57192;BME280;43052;52.588;13.396;2022-08-26T08:23:01;100995.94;;;49.70;16.76
57192;BME280;43052;52.588;13.396;2022-08-26T08:25:30;100997.72;;;47.60;18.87
57192;BME280;43052;52.588;13.396;2022-08-26T08:27:55;100994.75;;;46.27;20.30
57192;BME280;43052;52.588;13.396;2022-08-26T08:30:21;100998.97;;;45.40;21.19
57192;BME280;43052;52.588;13.396;2022-08-26T08:32:46;100988.41;;;44.50;21.80
57192;BME280;43052;52.588;13.396;2022-08-26T08:35:14;100996.22;;;43.59;23.04
57192;BME280;43052;52.588;13.396;2022-08-26T08:37:40;100991.09;;;42.78;23.83
57192;BME280;43052;52.588;13.396;2022-08-26T08:40:07;100993.75;;;42.26;24.51
57192;BME280;43052;52.588;13.396;2022-08-26T08:45:37;100983.69;;;44.39;22.63
57192;BME280;43052;52.588;13.396;2022-08-26T08:48:13;100979.78;;;45.14;21.84
57192;BME280;43052;52.588;13.396;2022-08-26T08:50:45;100989.13;;;45.98;20.77
57192;BME280;43052;52.588;13.396;2022-08-26T08:53:20;100989.72;;;46.12;20.68
57192;BME280;43052;52.588;13.396;2022-08-26T08:59:02;100969.41;;;47.75;18.91
57192;BME280;43052;52.588;13.396;2022-08-26T09:01:52;100971.94;;;48.10;18.20
57192;BME280;43052;52.588;13.396;2022-08-26T09:06:48;100967.28;;;43.75;22.30
57192;BME280;43052;52.588;13.396;2022-08-26T09:09:38;100956.16;;;41.93;24.38
57192;BME280;43052;52.588;13.396;2022-08-26T09:12:12;100955.94;;;40.92;25.75
57192;BME280;43052;52.588;13.396;2022-08-26T09:14:39;100945.84;;;39.87;26.81
57192;BME280;43052;52.588;13.396;2022-08-26T09:17:51;100951.63;;;40.28;26.90
57192;BME280;43052;52.588;13.396;2022-08-26T09:20:46;100949.19;;;40.46;26.56
57192;BME280;43052;52.588;13.396;2022-08-26T09:23:13;100951.75;;;40.54;26.49
57192;BME280;43052;52.588;13.396;2022-08-26T09:26:16;100951.31;;;40.16;27.04
57192;BME280;43052;52.588;13.396;2022-08-26T09:28:46;100949.81;;;39.05;28.40
57192;BME280;43052;52.588;13.396;2022-08-26T09:31:29;100946.84;;;38.39;29.41
57192;BME280;43052;52.588;13.396;2022-08-26T09:34:13;100954.19;;;38.54;29.62
57192;BME280;43052;52.588;13.396;2022-08-26T09:36:56;100953.25;;;37.70;30.20
57192;BME280;43052;52.588;13.396;2022-08-26T09:39:37;100944.91;;;36.94;31.66
57192;BME280;43052;52.588;13.396;2022-08-26T09:42:20;100942.25;;;36.69;32.09
57192;BME280;43052;52.588;13.396;2022-08-26T09:44:58;100946.41;;;36.48;32.63
57192;BME280;43052;52.588;13.396;2022-08-26T09:47:27;100941.06;;;36.72;32.53
57192;BME280;43052;52.588;13.396;2022-08-26T09:50:09;100933.69;;;37.67;30.97
57192;BME280;43052;52.588;13.396;2022-08-26T09:52:42;100929.16;;;37.59;30.78
57192;BME280;43052;52.588;13.396;2022-08-26T09:55:14;100926.69;;;37.49;30.63
57192;BME280;43052;52.588;13.396;2022-08-26T09:57:52;100920.06;;;38.05;30.06
57192;BME280;43052;52.588;13.396;2022-08-26T10:00:26;100913.97;;;39.79;27.06
57192;BME280;43052;52.588;13.396;2022-08-26T10:02:51;100909.69;;;41.24;25.09
57192;BME280;43052;52.588;13.396;2022-08-26T10:05:28;100902.09;;;43.11;22.37
57192;BME280;43052;52.588;13.396;2022-08-26T10:07:54;100895.69;;;44.37;21.01
57192;BME280;43052;52.588;13.396;2022-08-26T10:10:31;100886.03;;;44.84;20.36
57192;BME280;43052;52.588;13.396;2022-08-26T10:13:04;100885.94;;;44.41;20.80
57192;BME280;43052;52.588;13.396;2022-08-26T10:15:40;100879.50;;;44.10;21.56
57192;BME280;43052;52.588;13.396;2022-08-26T10:18:14;100874.19;;;43.90;21.29
57192;BME280;43052;52.588;13.396;2022-08-26T10:20:52;100863.38;;;43.70;21.55
57192;BME280;43052;52.588;13.396;2022-08-26T10:23:23;100860.66;;;42.35;22.58
57192;BME280;43052;52.588;13.396;2022-08-26T10:26:20;100861.13;;;39.72;25.79
57192;BME280;43052;52.588;13.396;2022-08-26T10:28:53;100854.09;;;38.61;27.77
57192;BME280;43052;52.588;13.396;2022-08-26T10:33:51;100845.53;;;37.28;29.91
57192;BME280;43052;52.588;13.396;2022-08-26T10:36:18;100847.38;;;36.81;30.63
57192;BME280;43052;52.588;13.396;2022-08-26T10:39:07;100846.53;;;36.49;31.01
57192;BME280;43052;52.588;13.396;2022-08-26T10:41:38;100839.00;;;36.03;31.42
57192;BME280;43052;52.588;13.396;2022-08-26T10:44:06;100828.84;;;35.97;31.81
57192;BME280;43052;52.588;13.396;2022-08-26T10:46:38;100831.44;;;36.30;32.01
57192;BME280;43052;52.588;13.396;2022-08-26T10:49:10;100821.84;;;36.50;31.69
57192;BME280;43052;52.588;13.396;2022-08-26T10:51:55;100814.41;;;36.99;30.90
57192;BME280;43052;52.588;13.396;2022-08-26T10:54:30;100807.56;;;37.50;29.90
57192;BME280;43052;52.588;13.396;2022-08-26T10:57:07;100801.38;;;37.32;29.75
57192;BME280;43052;52.588;13.396;2022-08-26T10:59:45;100787.81;;;37.47;29.77
57192;BME280;43052;52.588;13.396;2022-08-26T11:02:38;100799.84;;;37.38;29.21
57192;BME280;43052;52.588;13.396;2022-08-26T11:05:24;100787.00;;;36.37;30.51
57192;BME280;43052;52.588;13.396;2022-08-26T11:07:51;100789.16;;;35.46;31.32
57192;BME280;43052;52.588;13.396;2022-08-26T11:22:46;100787.50;;;34.18;34.61
57192;BME280;43052;52.588;13.396;2022-08-26T11:25:17;100780.66;;;33.79;34.99
57192;BME280;43052;52.588;13.396;2022-08-26T11:27:51;100769.19;;;33.15;36.42
57192;BME280;43052;52.588;13.396;2022-08-26T11:32:52;100758.41;;;32.13;38.35
57192;BME280;43052;52.588;13.396;2022-08-26T11:40:34;100743.16;;;31.84;39.76
57192;BME280;43052;52.588;13.396;2022-08-26T11:43:06;100751.59;;;31.71;40.10
57192;BME280;43052;52.588;13.396;2022-08-26T11:45:37;100754.34;;;31.41;40.11
57192;BME280;43052;52.588;13.396;2022-08-26T11:48:28;100758.38;;;31.18;42.28
57192;BME280;43052;52.588;13.396;2022-08-26T11:51:09;100767.16;;;30.81;43.52
57192;BME280;43052;52.588;13.396;2022-08-26T11:53:40;100754.41;;;30.32;44.37
57192;BME280;43052;52.588;13.396;2022-08-26T11:56:09;100777.22;;;30.18;44.99
57192;BME280;43052;52.588;13.396;2022-08-26T11:58:41;100774.84;;;29.94;42.54
57192;BME280;43052;52.588;13.396;2022-08-26T12:01:07;100789.69;;;29.46;41.62
57192;BME280;43052;52.588;13.396;2022-08-26T12:06:31;100815.03;;;28.33;42.08
57192;BME280;43052;52.588;13.396;2022-08-26T12:08:58;100819.75;;;27.95;42.53
57192;BME280;43052;52.588;13.396;2022-08-26T12:11:30;100813.34;;;27.62;43.58
57192;BME280;43052;52.588;13.396;2022-08-26T12:16:28;100828.91;;;26.97;45.36
57192;BME280;43052;52.588;13.396;2022-08-26T12:18:54;100829.00;;;26.58;46.78
57192;BME280;43052;52.588;13.396;2022-08-26T12:21:23;100816.94;;;26.26;47.94
57192;BME280;43052;52.588;13.396;2022-08-26T12:23:52;100830.56;;;26.10;48.93
57192;BME280;43052;52.588;13.396;2022-08-26T12:26:31;100835.47;;;25.91;49.53
57192;BME280;43052;52.588;13.396;2022-08-26T12:29:05;100852.47;;;25.64;50.61
57192;BME280;43052;52.588;13.396;2022-08-26T12:31:34;100863.00;;;25.40;52.08
57192;BME280;43052;52.588;13.396;2022-08-26T12:34:03;100867.16;;;25.16;54.10
57192;BME280;43052;52.588;13.396;2022-08-26T12:36:34;100869.41;;;24.95;55.88
57192;BME280;43052;52.588;13.396;2022-08-26T12:44:45;100870.03;;;24.28;60.13
57192;BME280;43052;52.588;13.396;2022-08-26T12:47:24;100864.09;;;24.08;61.16
57192;BME280;43052;52.588;13.396;2022-08-26T12:50:00;100866.97;;;23.89;62.39
57192;BME280;43052;52.588;13.396;2022-08-26T12:52:28;100873.69;;;23.66;63.31
57192;BME280;43052;52.588;13.396;2022-08-26T12:54:59;100897.88;;;23.63;63.16
57192;BME280;43052;52.588;13.396;2022-08-26T12:57:35;100903.59;;;23.57;64.45
57192;BME280;43052;52.588;13.396;2022-08-26T13:00:31;100897.47;;;23.55;65.13
57192;BME280;43052;52.588;13.396;2022-08-26T13:02:58;100877.34;;;23.49;65.40
57192;BME280;43052;52.588;13.396;2022-08-26T13:05:29;100859.34;;;23.53;66.24
57192;BME280;43052;52.588;13.396;2022-08-26T13:08:10;100837.59;;;23.44;66.91
57192;BME280;43052;52.588;13.396;2022-08-26T13:10:38;100848.00;;;23.49;67.17
57192;BME280;43052;52.588;13.396;2022-08-26T13:13:04;100856.94;;;23.48;67.36
57192;BME280;43052;52.588;13.396;2022-08-26T13:15:29;100848.94;;;23.48;67.69
57192;BME280;43052;52.588;13.396;2022-08-26T13:17:55;100853.50;;;23.46;67.79
57192;BME280;43052;52.588;13.396;2022-08-26T13:20:20;100850.56;;;23.51;67.79
57192;BME280;43052;52.588;13.396;2022-08-26T13:22:47;100868.28;;;23.52;67.81
57192;BME280;43052;52.588;13.396;2022-08-26T13:25:12;100883.09;;;23.57;68.17
57192;BME280;43052;52.588;13.396;2022-08-26T13:27:38;100897.91;;;23.47;68.07
57192;BME280;43052;52.588;13.396;2022-08-26T13:30:03;100922.72;;;23.49;68.10
57192;BME280;43052;52.588;13.396;2022-08-26T13:32:29;100933.66;;;23.44;68.16